sensor_id;sensor_type;location;lat;lon;timestamp;pressure;altitude;pressure_sealevel;temperature;humidity
11212;BME280;5663;50.864;12.096;2022-09-09T01:40:44;98949.78;;;13.95;80.54
11212;BME280;5663;50.864;12.096;2022-09-09T01:43:17;98952.41;;;13.95;80.75
11212;BME280;5663;50.864;12.096;2022-09-09T01:46:08;98952.19;;;13.98;80.78
11212;BME280;5663;50.864;12.096;2022-09-09T01:48:45;98948.63;;;13.99;80.38
11212;BME280;5663;50.864;12.096;2022-09-09T01:51:23;98960.16;;;13.96;80.56
11212;BME280;5663;50.864;12.096;2022-09-09T01:53:54;98951.38;;;13.97;80.60
11212;BME280;5663;50.864;12.096;2022-09-09T01:56:54;98948.84;;;13.96;80.68
11212;BME280;5663;50.864;12.096;2022-09-09T01:59:47;98947.19;;;13.95;80.97
11212;BME280;5663;50.864;12.096;2022-09-09T02:02:35;98947.38;;;13.92;80.99
11212;BME280;5663;50.864;12.096;2022-09-09T02:05:21;98943.13;;;13.91;81.42
11212;BME280;5663;50.864;12.096;2022-09-09T02:08:05;98940.94;;;13.85;81.60
11212;BME280;5663;50.864;12.096;2022-09-09T02:10:45;98954.41;;;13.91;81.72
11212;BME280;5663;50.864;12.096;2022-09-09T02:13:29;98951.78;;;13.91;81.58
11212;BME280;5663;50.864;12.096;2022-09-09T02:16:10;98951.78;;;13.91;81.75
11212;BME280;5663;50.864;12.096;2022-09-09T02:18:49;98957.97;;;13.90;81.65
11212;BME280;5663;50.864;12.096;2022-09-09T02:21:35;98950.88;;;13.79;81.75
11212;BME280;5663;50.864;12.096;2022-09-09T02:24:09;98959.84;;;13.88;81.94
11212;BME280;5663;50.864;12.096;2022-09-09T02:26:41;98923.84;;;13.68;81.78
11212;BME280;5663;50.864;12.096;2022-09-09T02:29:16;98965.06;;;13.88;81.45
11212;BME280;5663;50.864;12.096;2022-09-09T02:31:50;98967.81;;;13.87;81.51
11212;BME280;5663;50.864;12.096;2022-09-09T02:34:25;98951.84;;;13.78;81.25
11212;BME280;5663;50.864;12.096;2022-09-09T02:37:14;98951.41;;;13.85;81.47
11212;BME280;5663;50.864;12.096;2022-09-09T02:39:51;98960.41;;;13.80;81.40
11212;BME280;5663;50.864;12.096;2022-09-09T02:42:40;98963.63;;;13.84;81.39
11212;BME280;5663;50.864;12.096;2022-09-09T02:45:19;98960.16;;;13.84;81.16
11212;BME280;5663;50.864;12.096;2022-09-09T02:48:21;98959.34;;;13.83;81.39
11212;BME280;5663;50.864;12.096;2022-09-09T02:51:07;98960.16;;;13.84;81.26
11212;BME280;5663;50.864;12.096;2022-09-09T02:54:14;98950.78;;;13.81;80.94
11212;BME280;5663;50.864;12.096;2022-09-09T02:56:53;98961.00;;;13.84;80.92
11212;BME280;5663;50.864;12.096;2022-09-09T02:59:35;98959.56;;;13.80;80.78
11212;BME280;5663;50.864;12.096;2022-09-09T03:02:18;98960.50;;;13.79;81.01
11212;BME280;5663;50.864;12.096;2022-09-09T03:04:54;98956.34;;;13.76;81.09
11212;BME280;5663;50.864;12.096;2022-09-09T03:07:32;98945.56;;;13.68;81.08
11212;BME280;5663;50.864;12.096;2022-09-09T03:10:15;98946.31;;;13.70;80.63
11212;BME280;5663;50.864;12.096;2022-09-09T03:12:50;98952.16;;;13.74;80.81
11212;BME280;5663;50.864;12.096;2022-09-09T03:15:25;98957.50;;;13.72;80.82
11212;BME280;5663;50.864;12.096;2022-09-09T03:18:07;98962.94;;;13.69;80.92
11212;BME280;5663;50.864;12.096;2022-09-09T03:20:47;98968.06;;;13.71;80.97
11212;BME280;5663;50.864;12.096;2022-09-09T03:23:19;98951.75;;;13.67;80.85
11212;BME280;5663;50.864;12.096;2022-09-09T03:25:56;98961.03;;;13.71;81.14
11212;BME280;5663;50.864;12.096;2022-09-09T03:28:32;98957.50;;;13.72;81.13
11212;BME280;5663;50.864;12.096;2022-09-09T03:31:08;98960.94;;;13.73;81.39
11212;BME280;5663;50.864;12.096;2022-09-09T03:33:57;98967.97;;;13.72;81.38
11212;BME280;5663;50.864;12.096;2022-09-09T03:36:53;98945.19;;;13.62;81.44
11212;BME280;5663;50.864;12.096;2022-09-09T03:39:26;98960.22;;;13.71;81.60
11212;BME280;5663;50.864;12.096;2022-09-09T03:41:58;98938.38;;;13.59;81.85
11212;BME280;5663;50.864;12.096;2022-09-09T03:44:32;98950.59;;;13.71;82.06
11212;BME280;5663;50.864;12.096;2022-09-09T03:47:12;98955.59;;;13.74;81.88
11212;BME280;5663;50.864;12.096;2022-09-09T03:49:46;98956.44;;;13.75;82.08
11212;BME280;5663;50.864;12.096;2022-09-09T03:52:20;98928.44;;;13.64;81.94
11212;BME280;5663;50.864;12.096;2022-09-09T03:54:54;98948.25;;;13.79;82.08
11212;BME280;5663;50.864;12.096;2022-09-09T03:57:32;98945.44;;;13.83;82.28
11212;BME280;5663;50.864;12.096;2022-09-09T04:00:07;98945.31;;;13.84;82.13
11212;BME280;5663;50.864;12.096;2022-09-09T04:02:39;98936.97;;;13.79;82.09
11212;BME280;5663;50.864;12.096;2022-09-09T04:05:13;98947.09;;;13.84;82.09
11212;BME280;5663;50.864;12.096;2022-09-09T04:07:43;98940.09;;;13.84;82.48
11212;BME280;5663;50.864;12.096;2022-09-09T04:10:16;98945.94;;;13.88;82.36
11212;BME280;5663;50.864;12.096;2022-09-09T04:12:58;98918.59;;;13.68;82.54
11212;BME280;5663;50.864;12.096;2022-09-09T04:15:31;98947.63;;;13.89;82.50
11212;BME280;5663;50.864;12.096;2022-09-09T04:18:08;98951.91;;;13.90;82.40
11212;BME280;5663;50.864;12.096;2022-09-09T04:20:41;98949.28;;;13.90;82.55
11212;BME280;5663;50.864;12.096;2022-09-09T04:23:31;98954.53;;;13.90;82.56
11212;BME280;5663;50.864;12.096;2022-09-09T04:26:08;98954.53;;;13.90;82.85
11212;BME280;5663;50.864;12.096;2022-09-09T04:28:51;98954.53;;;13.90;82.99
11212;BME280;5663;50.864;12.096;2022-09-09T04:31:47;98956.19;;;13.91;82.71
11212;BME280;5663;50.864;12.096;2022-09-09T04:34:24;98949.28;;;13.90;82.43
11212;BME280;5663;50.864;12.096;2022-09-09T04:37:14;98963.47;;;13.98;82.49
11212;BME280;5663;50.864;12.096;2022-09-09T04:39:49;98955.53;;;14.00;82.50
11212;BME280;5663;50.864;12.096;2022-09-09T04:42:20;98955.31;;;14.03;82.41
11212;BME280;5663;50.864;12.096;2022-09-09T04:44:54;98956.38;;;14.00;82.64
11212;BME280;5663;50.864;12.096;2022-09-09T04:47:24;98959.50;;;14.05;82.45
11212;BME280;5663;50.864;12.096;2022-09-09T04:50:07;98924.81;;;13.91;82.62
11212;BME280;5663;50.864;12.096;2022-09-09T04:52:56;98956.31;;;14.13;82.52
11212;BME280;5663;50.864;12.096;2022-09-09T04:56:10;98950.03;;;14.16;82.71
11212;BME280;5663;50.864;12.096;2022-09-09T04:58:56;98958.38;;;14.21;82.62
11212;BME280;5663;50.864;12.096;2022-09-09T05:01:37;98946.34;;;14.18;82.81
11212;BME280;5663;50.864;12.096;2022-09-09T05:04:38;98967.34;;;14.29;82.72
11212;BME280;5663;50.864;12.096;2022-09-09T05:07:10;98950.09;;;14.27;82.78
11212;BME280;5663;50.864;12.096;2022-09-09T05:10:23;98949.53;;;14.35;83.49
11212;BME280;5663;50.864;12.096;2022-09-09T05:17:12;98957.66;;;14.43;83.29
11212;BME280;5663;50.864;12.096;2022-09-09T05:24:00;98967.47;;;14.52;83.52
11212;BME280;5663;50.864;12.096;2022-09-09T05:30:59;98971.47;;;14.69;83.46
11212;BME280;5663;50.864;12.096;2022-09-09T05:33:47;98969.22;;;14.75;83.57
11212;BME280;5663;50.864;12.096;2022-09-09T05:36:36;98970.44;;;14.83;83.61
11212;BME280;5663;50.864;12.096;2022-09-09T05:39:30;98948.88;;;14.79;83.42
11212;BME280;5663;50.864;12.096;2022-09-09T05:42:33;98972.03;;;14.96;83.42
11212;BME280;5663;50.864;12.096;2022-09-09T05:45:42;98976.69;;;15.04;83.29
11212;BME280;5663;50.864;12.096;2022-09-09T05:48:21;98987.63;;;15.09;83.40
11212;BME280;5663;50.864;12.096;2022-09-09T05:51:03;98983.63;;;15.16;83.55
11212;BME280;5663;50.864;12.096;2022-09-09T05:53:50;98986.56;;;15.23;83.61
11212;BME280;5663;50.864;12.096;2022-09-09T05:56:29;98993.97;;;15.29;83.59
11212;BME280;5663;50.864;12.096;2022-09-09T05:59:13;98985.75;;;15.34;83.83
11212;BME280;5663;50.864;12.096;2022-09-09T06:03:05;98986.00;;;15.42;83.88
11212;BME280;5663;50.864;12.096;2022-09-09T06:06:14;98980.41;;;15.46;83.84
11212;BME280;5663;50.864;12.096;2022-09-09T06:09:05;98984.34;;;15.52;84.04
11212;BME280;5663;50.864;12.096;2022-09-09T06:12:10;98986.34;;;15.60;84.35
11212;BME280;5663;50.864;12.096;2022-09-09T06:15:10;98979.84;;;15.65;84.19
11212;BME280;5663;50.864;12.096;2022-09-09T06:18:17;98990.81;;;15.70;84.23
11212;BME280;5663;50.864;12.096;2022-09-09T06:24:28;98993.06;;;15.86;84.29
11212;BME280;5663;50.864;12.096;2022-09-09T06:27:05;98980.69;;;15.88;84.54
11212;BME280;5663;50.864;12.096;2022-09-09T06:33:57;98984.56;;;16.05;84.40
11212;BME280;5663;50.864;12.096;2022-09-09T06:37:13;98986.97;;;16.08;84.28
11212;BME280;5663;50.864;12.096;2022-09-09T06:40:14;98979.41;;;16.15;84.18
11212;BME280;5663;50.864;12.096;2022-09-09T06:43:10;98985.97;;;16.20;83.92
11212;BME280;5663;50.864;12.096;2022-09-09T07:48:03;98995.28;;;17.92;82.43
11212;BME280;5663;50.864;12.096;2022-09-09T07:51:24;98999.47;;;18.04;82.17
11212;BME280;5663;50.864;12.096;2022-09-09T07:57:42;98994.94;;;18.26;81.99
11212;BME280;5663;50.864;12.096;2022-09-09T08:01:12;99008.41;;;18.42;81.92
11212;BME280;5663;50.864;12.096;2022-09-09T08:08:17;99006.91;;;18.68;81.07
11212;BME280;5663;50.864;12.096;2022-09-09T08:10:54;99007.06;;;18.77;80.62
11212;BME280;5663;50.864;12.096;2022-09-09T08:14:00;99006.38;;;18.84;80.51
11212;BME280;5663;50.864;12.096;2022-09-09T08:16:53;99009.16;;;18.92;81.36
11212;BME280;5663;50.864;12.096;2022-09-09T08:19:43;98999.72;;;19.00;81.56
11212;BME280;5663;50.864;12.096;2022-09-09T08:22:24;99007.75;;;19.08;81.53
11212;BME280;5663;50.864;12.096;2022-09-09T08:24:54;99012.44;;;19.14;81.16
11212;BME280;5663;50.864;12.096;2022-09-09T08:27:32;99007.44;;;19.20;80.82
11212;BME280;5663;50.864;12.096;2022-09-09T08:31:04;99004.50;;;19.33;80.41
11212;BME280;5663;50.864;12.096;2022-09-09T08:34:06;99010.44;;;19.45;80.38
11212;BME280;5663;50.864;12.096;2022-09-09T08:45:25;99015.59;;;19.84;78.83
11212;BME280;5663;50.864;12.096;2022-09-09T08:52:37;99013.81;;;20.02;77.87
11212;BME280;5663;50.864;12.096;2022-09-09T08:55:43;99010.22;;;20.03;76.59
11212;BME280;5663;50.864;12.096;2022-09-09T09:06:23;99017.72;;;20.26;75.73
11212;BME280;5663;50.864;12.096;2022-09-09T09:09:48;99017.59;;;20.27;75.74
11212;BME280;5663;50.864;12.096;2022-09-09T09:12:44;99011.91;;;20.22;75.81
11212;BME280;5663;50.864;12.096;2022-09-09T09:15:42;99012.59;;;20.24;75.52
11212;BME280;5663;50.864;12.096;2022-09-09T09:19:00;99000.09;;;20.44;75.88
11212;BME280;5663;50.864;12.096;2022-09-09T09:21:56;99010.09;;;20.68;75.16
11212;BME280;5663;50.864;12.096;2022-09-09T09:24:42;99005.72;;;20.77;73.15
11212;BME280;5663;50.864;12.096;2022-09-09T09:31:27;99011.69;;;20.79;71.22
11212;BME280;5663;50.864;12.096;2022-09-09T09:34:20;99003.44;;;21.00;71.87
11212;BME280;5663;50.864;12.096;2022-09-09T09:37:15;99002.81;;;21.32;70.16
11212;BME280;5663;50.864;12.096;2022-09-09T09:40:12;98983.94;;;21.53;68.92
11212;BME280;5663;50.864;12.096;2022-09-09T09:42:53;99007.94;;;21.94;69.48
11212;BME280;5663;50.864;12.096;2022-09-09T09:45:31;98991.19;;;22.19;68.06
11212;BME280;5663;50.864;12.096;2022-09-09T09:48:11;99001.03;;;22.51;67.03
11212;BME280;5663;50.864;12.096;2022-09-09T09:50:57;99013.16;;;22.78;65.48
11212;BME280;5663;50.864;12.096;2022-09-09T09:54:00;99004.03;;;22.81;62.74
11212;BME280;5663;50.864;12.096;2022-09-09T09:56:47;99016.31;;;22.90;63.58
11212;BME280;5663;50.864;12.096;2022-09-09T09:59:44;99017.31;;;22.97;63.48
11212;BME280;5663;50.864;12.096;2022-09-09T10:02:37;99005.06;;;22.96;62.77
11212;BME280;5663;50.864;12.096;2022-09-09T10:05:45;99007.69;;;22.88;60.72
11212;BME280;5663;50.864;12.096;2022-09-09T10:08:43;99012.16;;;22.87;59.76
11212;BME280;5663;50.864;12.096;2022-09-09T10:11:35;99000.03;;;22.85;59.63
11212;BME280;5663;50.864;12.096;2022-09-09T10:14:18;98965.75;;;22.67;60.77
11212;BME280;5663;50.864;12.096;2022-09-09T10:17:02;99002.06;;;22.99;61.74
11212;BME280;5663;50.864;12.096;2022-09-09T10:19:46;98995.94;;;23.07;60.75
11212;BME280;5663;50.864;12.096;2022-09-09T10:22:27;98979.53;;;23.03;59.32
11212;BME280;5663;50.864;12.096;2022-09-09T10:25:23;60577.69;;;-142.83;100.00
11212;BME280;5663;50.864;12.096;2022-09-09T10:28:25;60577.69;;;-142.83;100.00
11212;BME280;5663;50.864;12.096;2022-09-09T10:31:11;60577.69;;;-142.83;100.00
11212;BME280;5663;50.864;12.096;2022-09-09T10:33:50;60577.69;;;-142.83;100.00
11212;BME280;5663;50.864;12.096;2022-09-09T10:36:28;60577.69;;;-142.83;100.00
11212;BME280;5663;50.864;12.096;2022-09-09T10:39:10;60577.69;;;-142.83;100.00
11212;BME280;5663;50.864;12.096;2022-09-09T10:42:07;60577.69;;;-142.83;100.00
11212;BME280;5663;50.864;12.096;2022-09-09T10:45:02;60577.69;;;-142.83;100.00
11212;BME280;5663;50.864;12.096;2022-09-09T10:51:00;60577.69;;;-142.83;100.00
11212;BME280;5663;50.864;12.096;2022-09-09T10:53:41;60577.69;;;-142.83;100.00
11212;BME280;5663;50.864;12.096;2022-09-09T10:56:25;60577.69;;;-142.83;100.00
11212;BME280;5663;50.864;12.096;2022-09-09T10:59:01;98979.53;;;23.03;59.32
11212;BME280;5663;50.864;12.096;2022-09-09T11:01:44;98978.72;;;25.06;55.11
11212;BME280;5663;50.864;12.096;2022-09-09T11:04:28;98976.19;;;24.90;56.16
11212;BME280;5663;50.864;12.096;2022-09-09T11:07:35;98988.66;;;24.89;52.87
11212;BME280;5663;50.864;12.096;2022-09-09T11:10:34;98989.84;;;24.87;54.83
11212;BME280;5663;50.864;12.096;2022-09-09T11:13:30;98974.56;;;25.03;55.31
11212;BME280;5663;50.864;12.096;2022-09-09T11:16:44;98975.00;;;25.30;54.09
11212;BME280;5663;50.864;12.096;2022-09-09T11:23:01;98932.75;;;25.56;51.03
11212;BME280;5663;50.864;12.096;2022-09-09T11:26:10;98965.19;;;25.90;51.06
11212;BME280;5663;50.864;12.096;2022-09-09T11:32:56;98959.44;;;26.08;51.75
11212;BME280;5663;50.864;12.096;2022-09-09T11:42:45;98951.91;;;25.96;50.47
11212;BME280;5663;50.864;12.096;2022-09-09T11:45:34;98951.00;;;25.89;48.89
11212;BME280;5663;50.864;12.096;2022-09-09T11:48:28;98951.50;;;25.78;49.15
11212;BME280;5663;50.864;12.096;2022-09-09T11:51:27;98957.53;;;25.72;48.92
11212;BME280;5663;50.864;12.096;2022-09-09T11:54:02;98956.16;;;25.76;50.11
11212;BME280;5663;50.864;12.096;2022-09-09T11:56:45;98947.97;;;25.92;48.98
11212;BME280;5663;50.864;12.096;2022-09-09T11:59:51;98960.59;;;26.20;48.81
11212;BME280;5663;50.864;12.096;2022-09-09T12:10:35;98950.25;;;26.46;47.29
11212;BME280;5663;50.864;12.096;2022-09-09T12:17:24;98928.59;;;26.20;47.96
11212;BME280;5663;50.864;12.096;2022-09-09T12:20:14;98931.47;;;26.18;48.83
11212;BME280;5663;50.864;12.096;2022-09-09T12:23:10;98918.31;;;26.17;47.71
11212;BME280;5663;50.864;12.096;2022-09-09T12:25:58;98923.38;;;26.33;48.98
11212;BME280;5663;50.864;12.096;2022-09-09T12:28:52;98911.47;;;26.29;47.29
11212;BME280;5663;50.864;12.096;2022-09-09T12:31:56;98914.66;;;26.18;46.99
11212;BME280;5663;50.864;12.096;2022-09-09T12:35:21;98902.38;;;26.02;47.96
11212;BME280;5663;50.864;12.096;2022-09-09T12:38:29;98887.25;;;25.88;48.03
11212;BME280;5663;50.864;12.096;2022-09-09T12:41:02;98897.22;;;25.79;49.03
11212;BME280;5663;50.864;12.096;2022-09-09T12:43:34;98901.44;;;25.73;49.10
11212;BME280;5663;50.864;12.096;2022-09-09T12:46:33;98892.22;;;25.76;48.69
11212;BME280;5663;50.864;12.096;2022-09-09T12:53:14;98891.41;;;25.90;48.47
11212;BME280;5663;50.864;12.096;2022-09-09T12:55:59;98885.69;;;25.93;46.87
11212;BME280;5663;50.864;12.096;2022-09-09T12:59:03;98898.00;;;25.94;48.11
11212;BME280;5663;50.864;12.096;2022-09-09T13:01:38;98897.28;;;25.86;46.99
11212;BME280;5663;50.864;12.096;2022-09-09T13:04:21;98862.50;;;25.58;48.68
11212;BME280;5663;50.864;12.096;2022-09-09T13:11:01;98908.31;;;25.68;47.74
11212;BME280;5663;50.864;12.096;2022-09-09T13:13:49;98898.78;;;25.59;47.50
11212;BME280;5663;50.864;12.096;2022-09-09T13:23:27;98907.34;;;25.39;46.80
11212;BME280;5663;50.864;12.096;2022-09-09T13:26:06;98905.97;;;25.43;47.28
11212;BME280;5663;50.864;12.096;2022-09-09T13:28:51;98896.31;;;25.42;45.82
11212;BME280;5663;50.864;12.096;2022-09-09T13:31:24;98907.25;;;25.47;45.29
11212;BME280;5663;50.864;12.096;2022-09-09T13:35:28;98875.13;;;25.34;45.73
11212;BME280;5663;50.864;12.096;2022-09-09T13:38:08;98892.66;;;25.43;45.92
11212;BME280;5663;50.864;12.096;2022-09-09T13:40:39;98887.31;;;25.28;46.49
11212;BME280;5663;50.864;12.096;2022-09-09T13:43:22;98898.88;;;25.21;45.97
11212;BME280;5663;50.864;12.096;2022-09-09T13:45:59;98896.31;;;25.13;46.05
11212;BME280;5663;50.864;12.096;2022-09-09T13:48:34;98895.75;;;25.02;46.03
11212;BME280;5663;50.864;12.096;2022-09-09T14:50:36;98904.16;;;24.07;50.33
11212;BME280;5663;50.864;12.096;2022-09-09T14:53:37;98891.00;;;23.91;49.96
11212;BME280;5663;50.864;12.096;2022-09-09T14:56:54;98916.69;;;23.99;50.13
11212;BME280;5663;50.864;12.096;2022-09-09T14:59:35;98925.75;;;24.04;48.97
11212;BME280;5663;50.864;12.096;2022-09-09T15:02:28;98934.44;;;24.21;49.54
11212;BME280;5663;50.864;12.096;2022-09-09T15:05:03;98931.59;;;24.31;48.32
11212;BME280;5663;50.864;12.096;2022-09-09T15:07:50;98935.31;;;24.45;47.44
11212;BME280;5663;50.864;12.096;2022-09-09T15:10:47;98931.63;;;24.54;47.72
11212;BME280;5663;50.864;12.096;2022-09-09T15:30:40;98927.13;;;24.54;48.43
11212;BME280;5663;50.864;12.096;2022-09-09T15:33:26;98924.16;;;24.49;47.75
11212;BME280;5663;50.864;12.096;2022-09-09T15:36:14;98919.22;;;24.46;48.46
11212;BME280;5663;50.864;12.096;2022-09-09T15:39:17;98919.22;;;24.46;48.94
11212;BME280;5663;50.864;12.096;2022-09-09T15:42:00;98917.91;;;24.42;48.75
11212;BME280;5663;50.864;12.096;2022-09-09T15:52:36;98917.75;;;24.13;48.39
11212;BME280;5663;50.864;12.096;2022-09-09T15:55:58;98907.84;;;24.06;48.56
11212;BME280;5663;50.864;12.096;2022-09-09T15:58:53;98914.50;;;24.02;48.15
11212;BME280;5663;50.864;12.096;2022-09-09T16:01:34;98914.66;;;24.01;48.77
11212;BME280;5663;50.864;12.096;2022-09-09T16:04:49;98893.34;;;23.86;48.76
11212;BME280;5663;50.864;12.096;2022-09-09T16:07:32;98903.59;;;23.89;50.17
11212;BME280;5663;50.864;12.096;2022-09-09T16:10:11;98900.00;;;23.82;49.64
11212;BME280;5663;50.864;12.096;2022-09-09T16:12:46;98906.84;;;23.76;50.40
11212;BME280;5663;50.864;12.096;2022-09-09T16:15:28;98909.72;;;23.67;50.62
11212;BME280;5663;50.864;12.096;2022-09-09T16:21:52;98916.44;;;23.30;51.66
11212;BME280;5663;50.864;12.096;2022-09-09T16:27:20;98914.00;;;23.12;52.94
11212;BME280;5663;50.864;12.096;2022-09-09T16:30:36;98918.81;;;23.08;52.78
11212;BME280;5663;50.864;12.096;2022-09-09T16:33:32;98928.44;;;23.01;52.93
11212;BME280;5663;50.864;12.096;2022-09-09T16:36:49;98930.47;;;22.91;53.05
11212;BME280;5663;50.864;12.096;2022-09-09T16:43:15;98901.97;;;22.52;53.86
11212;BME280;5663;50.864;12.096;2022-09-09T16:45:55;98946.69;;;22.72;53.97
11212;BME280;5663;50.864;12.096;2022-09-09T16:48:39;98945.06;;;22.62;54.32
11212;BME280;5663;50.864;12.096;2022-09-09T17:50:09;98943.41;;;20.21;61.05
11212;BME280;5663;50.864;12.096;2022-09-09T17:53:09;98951.25;;;20.12;61.20
11212;BME280;5663;50.864;12.096;2022-09-09T17:55:50;98920.88;;;19.81;61.26
11212;BME280;5663;50.864;12.096;2022-09-09T17:58:24;98951.91;;;19.97;61.55
11212;BME280;5663;50.864;12.096;2022-09-09T18:01:03;98956.94;;;19.90;61.57
11212;BME280;5663;50.864;12.096;2022-09-09T18:03:56;98964.75;;;19.82;61.94
11212;BME280;5663;50.864;12.096;2022-09-09T18:07:01;98970.09;;;19.72;62.02
11212;BME280;5663;50.864;12.096;2022-09-09T18:10:04;98972.06;;;19.60;62.30
11212;BME280;5663;50.864;12.096;2022-09-09T18:17:02;98998.22;;;19.44;63.09
11212;BME280;5663;50.864;12.096;2022-09-09T18:43:00;99008.03;;;18.95;64.78
11212;BME280;5663;50.864;12.096;2022-09-09T18:45:52;99010.94;;;18.92;65.19
11212;BME280;5663;50.864;12.096;2022-09-09T18:48:37;98982.66;;;18.75;65.44
11212;BME280;5663;50.864;12.096;2022-09-09T19:56:01;99024.34;;;18.50;69.44
11212;BME280;5663;50.864;12.096;2022-09-09T19:58:52;99028.94;;;18.48;69.75
11212;BME280;5663;50.864;12.096;2022-09-09T20:01:35;99028.22;;;18.46;69.95
11212;BME280;5663;50.864;12.096;2022-09-09T20:04:16;99019.50;;;18.36;69.99
11212;BME280;5663;50.864;12.096;2022-09-09T20:07:51;99032.38;;;18.39;70.27
11212;BME280;5663;50.864;12.096;2022-09-09T20:10:40;99039.44;;;18.29;70.48
11212;BME280;5663;50.864;12.096;2022-09-09T20:13:45;99040.66;;;18.25;70.25
11212;BME280;5663;50.864;12.096;2022-09-09T20:16:26;99022.63;;;18.10;70.48
11212;BME280;5663;50.864;12.096;2022-09-09T20:19:14;99033.72;;;18.14;70.55
11212;BME280;5663;50.864;12.096;2022-09-09T20:25:51;99029.22;;;17.95;70.23
11212;BME280;5663;50.864;12.096;2022-09-09T20:28:38;99053.91;;;18.04;70.36
11212;BME280;5663;50.864;12.096;2022-09-09T20:31:23;99046.22;;;17.91;70.96
11212;BME280;5663;50.864;12.096;2022-09-09T20:34:19;99068.00;;;17.93;70.98
11212;BME280;5663;50.864;12.096;2022-09-09T20:37:17;99062.97;;;17.90;71.04
11212;BME280;5663;50.864;12.096;2022-09-09T20:40:14;99061.59;;;17.86;70.75
11212;BME280;5663;50.864;12.096;2022-09-09T20:43:22;99056.88;;;17.80;70.78
11212;BME280;5663;50.864;12.096;2022-09-09T20:46:05;99063.69;;;17.71;71.00
11212;BME280;5663;50.864;12.096;2022-09-09T20:48:46;99067.44;;;17.68;71.19
11212;BME280;5663;50.864;12.096;2022-09-09T20:51:28;99050.50;;;17.61;71.35
11212;BME280;5663;50.864;12.096;2022-09-09T20:54:14;99070.13;;;17.57;71.20
11212;BME280;5663;50.864;12.096;2022-09-09T20:56:59;99066.09;;;17.53;71.56
11212;BME280;5663;50.864;12.096;2022-09-09T20:59:57;99067.56;;;17.46;71.51
11212;BME280;5663;50.864;12.096;2022-09-09T21:02:38;99072.00;;;17.45;71.80
11212;BME280;5663;50.864;12.096;2022-09-09T21:09:20;99073.38;;;17.40;71.59
11212;BME280;5663;50.864;12.096;2022-09-09T21:11:51;99062.09;;;17.28;71.69
11212;BME280;5663;50.864;12.096;2022-09-09T21:14:27;99072.91;;;17.35;71.83
11212;BME280;5663;50.864;12.096;2022-09-09T21:17:13;99064.56;;;17.30;71.68
11212;BME280;5663;50.864;12.096;2022-09-09T21:20:37;99059.38;;;17.18;71.32
11212;BME280;5663;50.864;12.096;2022-09-09T21:23:32;99065.34;;;17.20;71.39
11212;BME280;5663;50.864;12.096;2022-09-09T21:26:43;99068.47;;;17.14;71.64
11212;BME280;5663;50.864;12.096;2022-09-09T21:29:26;99052.41;;;17.08;71.71
11212;BME280;5663;50.864;12.096;2022-09-09T21:32:07;99066.09;;;17.11;72.23
11212;BME280;5663;50.864;12.096;2022-09-09T21:34:59;99063.59;;;17.10;72.17
11212;BME280;5663;50.864;12.096;2022-09-09T21:38:05;99061.34;;;17.05;72.28
11212;BME280;5663;50.864;12.096;2022-09-09T21:40:47;99073.78;;;17.03;72.53
11212;BME280;5663;50.864;12.096;2022-09-09T21:43:33;99074.06;;;17.00;72.59
11212;BME280;5663;50.864;12.096;2022-09-09T21:46:13;99075.13;;;16.97;72.71
11212;BME280;5663;50.864;12.096;2022-09-09T21:48:51;99070.94;;;16.95;72.69
11212;BME280;5663;50.864;12.096;2022-09-09T21:51:43;99068.69;;;16.90;72.59
11212;BME280;5663;50.864;12.096;2022-09-09T22:53:52;99071.97;;;16.17;71.37
11212;BME280;5663;50.864;12.096;2022-09-09T22:57:26;99070.41;;;16.14;71.47
11212;BME280;5663;50.864;12.096;2022-09-09T23:00:16;99064.78;;;16.08;71.66
11212;BME280;5663;50.864;12.096;2022-09-09T23:03:09;99060.41;;;16.08;71.90
11212;BME280;5663;50.864;12.096;2022-09-09T23:06:01;99053.75;;;16.04;71.77
11212;BME280;5663;50.864;12.096;2022-09-09T23:08:52;99057.28;;;16.03;72.03
11212;BME280;5663;50.864;12.096;2022-09-09T23:11:35;99053.97;;;16.01;71.88
11212;BME280;5663;50.864;12.096;2022-09-09T23:14:15;99051.72;;;15.96;72.13
11212;BME280;5663;50.864;12.096;2022-09-09T23:20:07;99030.84;;;15.84;72.48
11212;BME280;5663;50.864;12.096;2022-09-09T23:22:40;99044.44;;;15.89;72.44
11212;BME280;5663;50.864;12.096;2022-09-09T23:25:16;99048.25;;;15.85;72.27
11212;BME280;5663;50.864;12.096;2022-09-09T23:27:48;99053.00;;;15.80;72.41
11212;BME280;5663;50.864;12.096;2022-09-09T23:37:54;99047.06;;;15.66;72.95
11212;BME280;5663;50.864;12.096;2022-09-09T23:45:13;99048.44;;;15.59;73.52
11212;BME280;5663;50.864;12.096;2022-09-09T23:47:51;99039.72;;;15.47;73.33
11212;BME280;5663;50.864;12.096;2022-09-09T23:50:23;99030.56;;;15.42;73.68
11212;BME280;5663;50.864;12.096;2022-09-09T23:52:55;99048.09;;;15.52;73.94
11212;BME280;5663;50.864;12.096;2022-09-09T23:55:34;99026.28;;;15.41;74.26
11212;BME280;5663;50.864;12.096;2022-09-09T23:58:16;99039.63;;;15.49;74.26
